Bahamas Celebration — C6XJ3 — position and weather

sailwx.info

Track history (hours):
 
Tides and Currents Weather Stations Pressure Air Temp Water Temp Dewpoint Dewpoint Depression Visibility Wind Speed Wind Dir Waves Ship Positions

Bahamas Celebration

Last reported at 2014-Sep-17 00:25 UTC. Time now 2014-Sep-17 23:36 UTC.
Position N 26°42' W 079°50'.

Length 202 m; draft 6.1 m.

Type: Passenger vessel. MMSI: 311011300.

Date/timePositionNaut miles runAvg speedWind from/ knotsBaromVisibWave heightAir tempDewpointWater temp
2014-Sep-17 00:25N 26°42' W 079°50'12 1.0
2014-Sep-16 11:33N 26°46' W 080°03'4 3.8
2014-Sep-16 10:28N 26°44' W 079°59'7 7.4
2014-Sep-16 09:33N 26°40' W 079°53'8 7.9
2014-Sep-16 08:33N 26°37' W 079°45'7 7.5
2014-Sep-16 07:33N 26°33' W 079°38'7 6.6
2014-Sep-16 06:33N 26°28' W 079°32'27 0.9
2014-Sep-14 23:09N 26°46' W 079°56'4 7.5
2014-Sep-14 22:33N 26°46' W 080°01'2 0.2
2014-Sep-14 11:18N 26°46' W 080°03'4 4.9
2014-Sep-14 10:32N 26°45' W 079°59'7 7.1
2014-Sep-14 09:31N 26°41' W 079°52'7 7.5
2014-Sep-14 08:33N 26°38' W 079°45'7 7.1
2014-Sep-14 07:32N 26°36' W 079°37'5 4.7
2014-Sep-14 06:30N 26°34' W 079°32'6 6.4
2014-Sep-14 05:31N 26°30' W 079°27'32 1.1
2014-Sep-12 23:25N 26°46' W 079°58'5 0.4
2014-Sep-12 11:09N 26°46' W 080°03'4 6.0
2014-Sep-12 10:29N 26°45' W 079°59'7 7.3
2014-Sep-12 09:33N 26°42' W 079°52'8 7.6
2014-Sep-12 08:33N 26°39' W 079°44'8 7.6
2014-Sep-12 07:33N 26°34' W 079°38'25 0.8
2014-Sep-10 22:30N 26°46' W 080°02'1 0.1
2014-Sep-10 08:33N 26°46' W 080°01'9 8.4
2014-Sep-10 07:32N 26°41' W 079°53'8 7.4
2014-Sep-10 06:32N 26°38' W 079°45'7 7.1
2014-Sep-10 05:33N 26°34' W 079°39'8 8.1
2014-Sep-10 04:33N 26°28' W 079°33'20 0.8
2014-Sep-09 02:16N 26°44' W 079°47'14 3.7
2014-Sep-08 22:32N 26°46' W 080°02'1 0.1
2014-Sep-08 11:33N 26°46' W 080°03'2 2.1
2014-Sep-08 10:33N 26°46' W 080°01'8 7.8
2014-Sep-08 09:33N 26°41' W 079°54'8 7.8
2014-Sep-08 08:33N 26°38' W 079°46'6 6.2
2014-Sep-08 07:33N 26°35' W 079°40'7 6.8
2014-Sep-08 06:33N 26°31' W 079°34'15 0.5
2014-Sep-07 02:30N 26°43' W 079°44'3 2.9
2014-Sep-07 01:28N 26°44' W 079°47'  
Track history (hours):
 
Tides and Currents Weather Stations Pressure Air Temp Water Temp Dewpoint Dewpoint Depression Visibility Wind Speed Wind Dir Waves Ship Positions

Bahamas Celebration

Last reported at 2014-Sep-17 00:25 UTC. Time now 2014-Sep-17 23:36 UTC.
Position N 26°42' W 079°50'.

Length 202 m; draft 6.1 m.

Type: Passenger vessel. MMSI: 311011300.

Date/timePositionNaut miles runAvg speedWind from/ knotsBaromVisibWave heightAir tempDewpointWater temp
2014-Sep-17 00:25N 26°42' W 079°50'12 1.0
2014-Sep-16 11:33N 26°46' W 080°03'4 3.8
2014-Sep-16 10:28N 26°44' W 079°59'7 7.4
2014-Sep-16 09:33N 26°40' W 079°53'8 7.9
2014-Sep-16 08:33N 26°37' W 079°45'7 7.5
2014-Sep-16 07:33N 26°33' W 079°38'7 6.6
2014-Sep-16 06:33N 26°28' W 079°32'27 0.9
2014-Sep-14 23:09N 26°46' W 079°56'4 7.5
2014-Sep-14 22:33N 26°46' W 080°01'2 0.2
2014-Sep-14 11:18N 26°46' W 080°03'4 4.9
2014-Sep-14 10:32N 26°45' W 079°59'7 7.1
2014-Sep-14 09:31N 26°41' W 079°52'7 7.5
2014-Sep-14 08:33N 26°38' W 079°45'7 7.1
2014-Sep-14 07:32N 26°36' W 079°37'5 4.7
2014-Sep-14 06:30N 26°34' W 079°32'6 6.4
2014-Sep-14 05:31N 26°30' W 079°27'32 1.1
2014-Sep-12 23:25N 26°46' W 079°58'5 0.4
2014-Sep-12 11:09N 26°46' W 080°03'4 6.0
2014-Sep-12 10:29N 26°45' W 079°59'7 7.3
2014-Sep-12 09:33N 26°42' W 079°52'8 7.6
2014-Sep-12 08:33N 26°39' W 079°44'8 7.6
2014-Sep-12 07:33N 26°34' W 079°38'25 0.8
2014-Sep-10 22:30N 26°46' W 080°02'1 0.1
2014-Sep-10 08:33N 26°46' W 080°01'9 8.4
2014-Sep-10 07:32N 26°41' W 079°53'8 7.4
2014-Sep-10 06:32N 26°38' W 079°45'7 7.1
2014-Sep-10 05:33N 26°34' W 079°39'8 8.1
2014-Sep-10 04:33N 26°28' W 079°33'20 0.8
2014-Sep-09 02:16N 26°44' W 079°47'14 3.7
2014-Sep-08 22:32N 26°46' W 080°02'1 0.1
2014-Sep-08 11:33N 26°46' W 080°03'2 2.1
2014-Sep-08 10:33N 26°46' W 080°01'8 7.8
2014-Sep-08 09:33N 26°41' W 079°54'8 7.8
2014-Sep-08 08:33N 26°38' W 079°46'6 6.2
2014-Sep-08 07:33N 26°35' W 079°40'7 6.8
2014-Sep-08 06:33N 26°31' W 079°34'15 0.5
2014-Sep-07 02:30N 26°43' W 079°44'3 2.9
2014-Sep-07 01:28N 26°44' W 079°47'  

Dump ship's entire track history